createdAt,value
2017-05-23T00:00:23.187Z,13.55
2017-05-23T00:01:22.537Z,13.55
2017-05-23T00:02:23.169Z,13.63
2017-05-23T00:03:22.886Z,13.57
2017-05-23T00:04:23.219Z,13.62
2017-05-23T00:05:23.229Z,13.59
2017-05-23T00:06:37.883Z,13.6
2017-05-23T00:07:23.275Z,13.52
2017-05-23T00:08:23.009Z,13.44
2017-05-23T00:09:23.339Z,13.45
2017-05-23T00:10:23.373Z,13.62
2017-05-23T00:11:23.394Z,13.55
2017-05-23T00:12:23.402Z,13.51
2017-05-23T00:13:23.435Z,13.48
2017-05-23T00:14:23.457Z,13.39
2017-05-23T00:15:23.163Z,13.33
2017-05-23T00:16:23.208Z,13.41
2017-05-23T00:17:23.210Z,13.48
2017-05-23T00:19:23.563Z,13.51
2017-05-23T00:20:23.586Z,13.51
2017-05-23T00:21:23.612Z,13.46
2017-05-23T00:22:38.254Z,13.46
2017-05-23T00:23:38.281Z,13.45
2017-05-23T00:24:23.699Z,13.46
2017-05-23T00:25:23.706Z,13.38
2017-05-23T00:26:23.750Z,13.38
2017-05-23T00:27:23.758Z,13.42
2017-05-23T00:28:23.800Z,13.38
2017-05-23T00:29:23.808Z,13.41
2017-05-23T00:30:23.846Z,13.36
2017-05-23T00:31:23.863Z,13.26
2017-05-23T00:32:23.879Z,13.2
2017-05-23T00:33:38.522Z,13.19
2017-05-23T00:34:38.534Z,13.25
2017-05-23T00:35:23.947Z,13.19
2017-05-23T00:36:23.989Z,13.22
2017-05-23T00:37:23.704Z,13.11
2017-05-23T00:38:38.640Z,13.12
2017-05-23T00:39:24.050Z,13.14
2017-05-23T00:40:24.071Z,13.17
2017-05-23T00:41:24.082Z,13.23
2017-05-23T00:42:24.115Z,13.2
2017-05-23T00:43:24.145Z,13.25
2017-05-23T00:44:24.157Z,13.15
2017-05-23T00:45:24.176Z,13.14
2017-05-23T00:46:24.209Z,13.12
2017-05-23T00:47:24.239Z,13.12
2017-05-23T00:48:24.261Z,13.08
2017-05-23T00:49:24.273Z,13.11
2017-05-23T00:50:24.300Z,13.05
2017-05-23T00:51:24.329Z,13.04
2017-05-23T00:52:24.367Z,12.97
2017-05-23T00:53:24.374Z,12.9
2017-05-23T00:54:39.010Z,12.89
2017-05-23T00:56:24.443Z,12.89
2017-05-23T00:58:24.188Z,12.83
2017-05-23T00:59:24.513Z,12.9
2017-05-23T01:00:24.538Z,12.82
2017-05-23T01:01:24.564Z,12.75
2017-05-23T01:02:24.581Z,12.72
2017-05-23T01:03:24.610Z,12.65
2017-05-23T01:04:24.621Z,12.7
2017-05-23T01:06:24.674Z,12.65
2017-05-23T01:07:24.387Z,12.54
2017-05-23T01:08:24.718Z,12.64
2017-05-23T01:09:39.354Z,12.6
2017-05-23T01:10:24.779Z,12.65
2017-05-23T01:11:24.790Z,12.68
2017-05-23T01:12:24.822Z,12.65
2017-05-23T01:13:24.850Z,12.68
2017-05-23T01:14:39.174Z,12.67
2017-05-23T01:15:24.581Z,12.65
2017-05-23T01:16:24.949Z,12.59
2017-05-23T01:17:24.930Z,12.53
2017-05-23T01:19:24.983Z,12.6
2017-05-23T01:20:24.699Z,12.5
2017-05-23T01:21:24.726Z,12.46
2017-05-23T01:22:24.749Z,12.42
2017-05-23T01:23:24.775Z,12.49
2017-05-23T01:24:39.715Z,12.42
2017-05-23T01:25:25.119Z,12.5
2017-05-23T01:27:25.173Z,12.52
2017-05-23T01:28:25.191Z,12.47
2017-05-23T01:29:25.221Z,12.39
2017-05-23T01:30:25.235Z,12.37
2017-05-23T01:31:25.263Z,12.37
2017-05-23T01:32:24.670Z,12.27
2017-05-23T01:33:25.299Z,12.42
2017-05-23T01:34:39.939Z,12.35
2017-05-23T01:35:25.362Z,12.37
2017-05-23T01:36:25.074Z,12.29
2017-05-23T01:37:25.407Z,12.24
2017-05-23T01:38:25.417Z,12.32
2017-05-23T01:39:25.447Z,12.32
2017-05-23T01:40:25.478Z,12.41
2017-05-23T01:41:40.103Z,12.35
2017-05-23T01:42:25.202Z,12.37
2017-05-23T01:43:25.236Z,12.41
2017-05-23T01:44:25.554Z,12.37
2017-05-23T01:45:25.274Z,12.35
2017-05-23T01:46:25.606Z,12.29
2017-05-23T01:47:25.635Z,12.27
2017-05-23T01:48:25.654Z,12.29
2017-05-23T01:49:25.372Z,12.23
2017-05-23T01:50:25.388Z,12.21
2017-05-23T01:51:25.722Z,12.14
2017-05-23T01:53:25.780Z,12.19
2017-05-23T01:54:25.485Z,12.07
2017-05-23T01:55:25.809Z,12.19
2017-05-23T01:56:25.831Z,12.19
2017-05-23T01:57:40.480Z,12.16
2017-05-23T01:58:25.874Z,12.12
2017-05-23T01:59:25.900Z,12.01
2017-05-23T02:00:25.929Z,12.02
2017-05-23T02:01:25.945Z,12.13
2017-05-23T02:02:25.982Z,12.13
2017-05-23T02:04:25.723Z,12.13
2017-05-23T02:05:26.036Z,12.19
2017-05-23T02:06:26.063Z,12.05
2017-05-23T02:07:26.106Z,12.05
2017-05-23T02:08:26.112Z,12.01
2017-05-23T02:09:26.146Z,12.05
2017-05-23T02:10:25.845Z,11.98
2017-05-23T02:11:26.187Z,11.99
2017-05-23T02:12:26.199Z,11.9
2017-05-23T02:13:40.839Z,11.91
2017-05-23T02:14:26.258Z,11.79
2017-05-23T02:15:26.279Z,11.91
2017-05-23T02:16:26.300Z,11.79
2017-05-23T02:17:26.326Z,11.76
2017-05-23T02:18:26.356Z,11.83
2017-05-23T02:19:26.369Z,11.75
2017-05-23T02:20:26.399Z,11.83
2017-05-23T02:21:26.413Z,11.83
2017-05-23T02:22:26.124Z,11.83
2017-05-23T02:23:26.466Z,11.83
2017-05-23T02:25:26.204Z,11.85
2017-05-23T02:26:26.533Z,11.78
2017-05-23T02:27:26.549Z,11.75
2017-05-23T02:28:26.277Z,11.73
2017-05-23T02:29:41.202Z,11.72
2017-05-23T02:30:26.620Z,11.7
2017-05-23T02:31:26.637Z,11.69
2017-05-23T02:32:26.672Z,11.61
2017-05-23T02:33:26.704Z,11.62
2017-05-23T02:34:26.410Z,11.61
2017-05-23T02:35:26.725Z,11.69
2017-05-23T02:36:26.749Z,11.67
2017-05-23T02:37:26.786Z,11.69
2017-05-23T02:38:26.810Z,11.58
2017-05-23T02:39:26.827Z,11.64
2017-05-23T02:40:26.843Z,11.55
2017-05-23T02:41:26.560Z,11.54
2017-05-23T02:42:26.897Z,11.6
2017-05-23T02:44:41.550Z,11.43
2017-05-23T02:45:26.664Z,11.54
2017-05-23T02:47:26.698Z,11.54
2017-05-23T02:48:26.722Z,11.47
2017-05-23T02:49:27.064Z,11.57
2017-05-23T02:50:27.072Z,11.55
2017-05-23T02:51:27.170Z,11.49
2017-05-23T02:52:27.110Z,11.57
2017-05-23T02:53:27.147Z,11.44
2017-05-23T02:54:27.163Z,11.51
2017-05-23T02:55:27.189Z,11.46
2017-05-23T02:56:27.211Z,11.49
2017-05-23T02:57:27.310Z,11.52
2017-05-23T02:58:27.258Z,11.62
2017-05-23T02:59:27.275Z,11.51
2017-05-23T03:00:26.994Z,11.67
2017-05-23T03:01:27.319Z,11.65
2017-05-23T03:02:27.351Z,11.55
2017-05-23T03:03:27.371Z,11.61
2017-05-23T03:05:27.424Z,11.6
2017-05-23T03:06:27.144Z,11.47
2017-05-23T03:07:27.464Z,11.47
2017-05-23T03:08:27.499Z,11.58
2017-05-23T03:09:27.516Z,11.51
2017-05-23T03:10:27.528Z,11.65
2017-05-23T03:11:27.557Z,11.7
2017-05-23T03:13:27.606Z,11.57
2017-05-23T03:14:27.618Z,11.54
2017-05-23T03:15:27.645Z,11.64
2017-05-23T03:16:42.276Z,11.67
2017-05-23T03:17:42.307Z,11.73
2017-05-23T03:18:27.704Z,11.7
2017-05-23T03:19:27.740Z,11.76
2017-05-23T03:20:27.749Z,11.8
2017-05-23T03:21:27.792Z,11.72
2017-05-23T03:22:27.794Z,11.72
2017-05-23T03:23:27.826Z,11.75
2017-05-23T03:24:27.845Z,11.8
2017-05-23T03:25:27.863Z,11.8
2017-05-23T03:26:27.882Z,11.73
2017-05-23T03:27:27.924Z,11.82
2017-05-23T03:28:27.953Z,11.69
2017-05-23T03:29:27.962Z,11.75
2017-05-23T03:30:27.980Z,11.78
2017-05-23T03:31:27.997Z,11.85
2017-05-23T03:32:42.647Z,11.85
2017-05-23T03:33:28.045Z,11.82
2017-05-23T03:34:28.080Z,11.79
2017-05-23T03:35:28.090Z,11.98
2017-05-23T03:36:28.135Z,11.98
2017-05-23T03:37:28.145Z,12.01
2017-05-23T03:38:27.866Z,12.09
2017-05-23T03:39:28.201Z,12.17
2017-05-23T03:41:28.221Z,12.27
2017-05-23T03:42:28.269Z,12.37
2017-05-23T03:43:27.972Z,12.5
2017-05-23T03:44:27.995Z,12.7
2017-05-23T03:45:28.011Z,12.75
2017-05-23T03:46:28.340Z,12.74
2017-05-23T03:47:28.377Z,12.74
2017-05-23T03:48:43.003Z,12.83
2017-05-23T03:49:28.423Z,12.82
2017-05-23T03:50:28.455Z,12.86
2017-05-23T03:51:28.463Z,12.85
2017-05-23T03:53:43.119Z,12.83
2017-05-23T03:54:28.532Z,12.95
2017-05-23T03:55:28.562Z,12.96
2017-05-23T03:56:28.587Z,12.97
2017-05-23T03:57:28.596Z,12.93
2017-05-23T03:59:28.656Z,12.86
2017-05-23T04:00:28.674Z,12.97
2017-05-23T04:01:28.694Z,12.97
2017-05-23T04:02:28.716Z,12.9
2017-05-23T04:03:28.747Z,13.05
2017-05-23T04:04:43.371Z,13.12
2017-05-23T04:05:28.786Z,13.19
2017-05-23T04:06:28.801Z,13.14
2017-05-23T04:07:28.826Z,13.17
2017-05-23T04:08:28.862Z,13.15
2017-05-23T04:09:28.882Z,13.25
2017-05-23T04:10:28.906Z,13.25
2017-05-23T04:11:28.926Z,13.2
2017-05-23T04:12:43.558Z,13.33
2017-05-23T04:14:28.992Z,13.36
2017-05-23T04:15:29.029Z,13.49
2017-05-23T04:16:28.744Z,13.52
2017-05-23T04:17:29.069Z,13.54
2017-05-23T04:18:29.087Z,13.63
2017-05-23T04:19:43.735Z,13.55
2017-05-23T04:20:29.133Z,13.51
2017-05-23T04:21:29.161Z,13.63
2017-05-23T04:22:29.189Z,13.66
2017-05-23T04:23:28.907Z,13.62
2017-05-23T04:24:29.236Z,13.67
2017-05-23T04:25:29.246Z,13.73
2017-05-23T04:26:29.288Z,13.78
2017-05-23T04:27:29.303Z,13.73
2017-05-23T04:28:29.325Z,13.85
2017-05-23T04:29:29.348Z,13.97
2017-05-23T04:30:29.368Z,13.89
2017-05-23T04:31:29.398Z,14.02
2017-05-23T04:32:29.430Z,14.07
2017-05-23T04:33:29.433Z,14.14
2017-05-23T04:34:29.464Z,14.18
2017-05-23T04:35:29.186Z,14.4
2017-05-23T04:37:29.541Z,14.64
2017-05-23T04:38:29.575Z,14.89
2017-05-23T04:39:29.591Z,15.36
2017-05-23T04:40:29.616Z,16.31
2017-05-23T04:41:29.635Z,16.81
2017-05-23T04:42:29.664Z,17.19
2017-05-23T04:43:29.684Z,17.4
2017-05-23T04:44:29.707Z,17.72
2017-05-23T04:45:30.056Z,18.14
2017-05-23T04:46:29.756Z,18.32
2017-05-23T04:47:29.786Z,18.65
2017-05-23T04:48:29.807Z,18.85
2017-05-23T04:49:29.836Z,19.21
2017-05-23T04:50:29.861Z,19.8
2017-05-23T04:51:44.496Z,20.7
2017-05-23T04:52:29.908Z,20.94
2017-05-23T04:53:29.945Z,21.49
2017-05-23T04:54:29.963Z,21.86
2017-05-23T04:55:29.979Z,22.36
2017-05-23T04:56:30.017Z,22.62
2017-05-23T04:57:30.051Z,22.7
2017-05-23T04:58:30.068Z,22.83
2017-05-23T04:59:30.105Z,23.09
2017-05-23T05:00:44.736Z,23.27
2017-05-23T05:01:30.163Z,23.46
2017-05-23T05:03:30.223Z,23.84
2017-05-23T05:04:30.241Z,24.15
2017-05-23T05:05:30.273Z,24.37
2017-05-23T05:06:30.300Z,24.57
2017-05-23T05:07:44.937Z,25.15
2017-05-23T05:08:30.051Z,25.05
2017-05-23T05:09:30.391Z,24.76
2017-05-23T05:10:45.033Z,24.43
2017-05-23T05:11:30.458Z,24.45
2017-05-23T05:12:30.482Z,24.5
2017-05-23T05:13:30.207Z,24.47
2017-05-23T05:14:30.530Z,24.58
2017-05-23T05:15:30.562Z,24.65
2017-05-23T05:16:30.603Z,25.21
2017-05-23T05:17:30.635Z,25.43
2017-05-23T05:18:30.666Z,25.06
2017-05-23T05:19:30.695Z,24.78
2017-05-23T05:20:30.721Z,24.99
2017-05-23T05:21:30.748Z,25.32
2017-05-23T05:22:30.802Z,25.58
2017-05-23T05:23:45.441Z,26.29
2017-05-23T05:24:30.863Z,26.33
2017-05-23T05:25:30.882Z,26.39
2017-05-23T05:26:30.906Z,26.81
2017-05-23T05:27:30.944Z,26.99
2017-05-23T05:28:30.995Z,27.75
2017-05-23T05:29:30.714Z,27.72
2017-05-23T05:30:30.748Z,28.06
2017-05-23T05:31:31.117Z,28.14
2017-05-23T05:32:31.114Z,27.72
2017-05-23T05:34:30.871Z,27.29
2017-05-23T05:35:31.216Z,27.21
2017-05-23T05:36:31.250Z,26.75
2017-05-23T05:37:31.274Z,26.94
2017-05-23T05:38:31.302Z,27.27
2017-05-23T05:39:45.950Z,27.6
2017-05-23T05:40:31.374Z,28.14
2017-05-23T05:41:31.415Z,28.3
2017-05-23T05:42:46.055Z,28.49
2017-05-23T05:43:46.087Z,28.67
2017-05-23T05:44:31.202Z,28.71
2017-05-23T05:45:31.533Z,29
2017-05-23T05:46:31.561Z,29.15
2017-05-23T05:47:31.597Z,29.14
2017-05-23T05:48:31.329Z,28.71
2017-05-23T05:49:31.378Z,28.3
2017-05-23T05:50:46.319Z,28.15
2017-05-23T05:51:31.747Z,28.39
2017-05-23T05:52:31.786Z,28.77
2017-05-23T05:53:31.500Z,28.64
2017-05-23T05:54:46.470Z,28.56
2017-05-23T05:55:46.502Z,28.43
2017-05-23T05:56:31.607Z,28.11
2017-05-23T05:57:31.650Z,28.29
2017-05-23T05:59:32.033Z,28.98
2017-05-23T06:00:32.058Z,29.19
2017-05-23T06:01:31.792Z,29.18
2017-05-23T06:02:31.830Z,29.37
2017-05-23T06:03:32.162Z,29.89
2017-05-23T06:04:31.893Z,30.1
2017-05-23T06:05:32.226Z,30.16
2017-05-23T06:06:31.952Z,29.82
2017-05-23T06:07:32.302Z,30.23
2017-05-23T06:08:32.330Z,30.54
2017-05-23T06:10:32.412Z,31.13
2017-05-23T06:11:32.141Z,31.26
2017-05-23T06:12:32.479Z,31.14
2017-05-23T06:13:32.517Z,31.41
2017-05-23T06:14:32.550Z,31.48
2017-05-23T06:15:32.581Z,31.51
2017-05-23T06:17:32.660Z,31.38
2017-05-23T06:18:32.697Z,31.35
2017-05-23T06:19:32.747Z,31.47
2017-05-23T06:20:32.771Z,31.2
2017-05-23T06:21:32.808Z,31.47
2017-05-23T06:22:32.841Z,31.41
2017-05-23T06:23:32.888Z,31.66
2017-05-23T06:24:32.918Z,31.65
2017-05-23T06:25:32.652Z,31.65
2017-05-23T06:26:47.603Z,31.96
2017-05-23T06:27:33.026Z,32.3
2017-05-23T06:28:32.754Z,31.99
2017-05-23T06:29:33.093Z,31.47
2017-05-23T06:30:33.136Z,31.73
2017-05-23T06:31:33.166Z,31.78
2017-05-23T06:32:33.226Z,32.29
2017-05-23T06:33:33.246Z,32.77
2017-05-23T06:34:33.281Z,33.04
2017-05-23T06:35:33.011Z,32.88
2017-05-23T06:36:33.058Z,33.04
2017-05-23T06:37:33.079Z,33.22
2017-05-23T06:38:33.117Z,33.11
2017-05-23T06:40:33.515Z,33.38
2017-05-23T06:41:33.602Z,33.32
2017-05-23T06:42:48.201Z,33.45
2017-05-23T06:43:33.619Z,33.49
2017-05-23T06:44:33.652Z,33.88
2017-05-23T06:45:33.688Z,33.84
2017-05-23T06:46:33.742Z,34.22
2017-05-23T06:48:33.818Z,34.21
2017-05-23T06:49:33.842Z,33.94
2017-05-23T06:50:33.884Z,33.69
2017-05-23T06:51:33.921Z,33.15
2017-05-23T06:52:33.969Z,33.71
2017-05-23T06:53:34.001Z,33.71
2017-05-23T06:54:34.040Z,32.84
2017-05-23T06:56:48.729Z,33.35
2017-05-23T06:57:34.144Z,33.59
2017-05-23T06:58:48.790Z,33.63
2017-05-23T06:59:34.219Z,33.86
2017-05-23T07:00:34.271Z,33.98
2017-05-23T07:01:34.291Z,34.1
2017-05-23T07:02:34.030Z,34.1
2017-05-23T07:03:48.682Z,34.1
2017-05-23T07:04:34.101Z,33.97
2017-05-23T07:05:34.444Z,33.45
2017-05-23T07:06:34.482Z,32.94
2017-05-23T07:07:34.226Z,33.09
2017-05-23T07:08:34.254Z,33.32
2017-05-23T07:09:48.905Z,33.53
2017-05-23T07:10:34.325Z,33.21
2017-05-23T07:11:34.675Z,32.38
2017-05-23T07:12:34.708Z,32.51
2017-05-23T07:13:34.750Z,32.89
2017-05-23T07:14:49.401Z,33.5
2017-05-23T07:15:34.834Z,33.51
2017-05-23T07:16:34.553Z,33.63
2017-05-23T07:17:34.898Z,33.91
2017-05-23T07:18:34.640Z,34.52
2017-05-23T07:19:34.966Z,34.35
2017-05-23T07:21:35.044Z,33.31
2017-05-23T07:22:35.099Z,33.45
2017-05-23T07:23:35.127Z,33.82
2017-05-23T07:24:35.157Z,33.6
2017-05-23T07:26:35.246Z,33.82
2017-05-23T07:28:35.326Z,33.16
2017-05-23T07:29:49.962Z,33.51
2017-05-23T07:30:35.400Z,33.93
2017-05-23T07:31:35.443Z,33.91
2017-05-23T07:32:35.171Z,34.3
2017-05-23T07:33:35.501Z,34.73
2017-05-23T07:34:35.540Z,34.89
2017-05-23T07:35:35.595Z,34.99
2017-05-23T07:36:35.626Z,35.21
2017-05-23T07:37:35.350Z,34.54
2017-05-23T07:38:35.706Z,34.03
2017-05-23T07:40:35.463Z,33.38
2017-05-23T07:41:35.510Z,33.41
2017-05-23T07:42:35.853Z,34.09
2017-05-23T07:44:35.318Z,34.64
2017-05-23T07:45:35.659Z,34.43
2017-05-23T07:46:35.690Z,33.42
2017-05-23T07:47:36.049Z,33.98
2017-05-23T07:48:36.077Z,33.72
2017-05-23T07:49:36.131Z,33.47
2017-05-23T07:50:36.156Z,33.15
2017-05-23T07:51:35.890Z,33.41
2017-05-23T07:52:35.928Z,33.63
2017-05-23T07:53:50.884Z,33.42
2017-05-23T07:54:36.316Z,33.44
2017-05-23T07:55:36.342Z,34.03
2017-05-23T07:56:36.384Z,33.61
2017-05-23T07:57:36.426Z,33.18
2017-05-23T07:58:36.455Z,33
2017-05-23T07:59:36.489Z,33.22
2017-05-23T08:00:36.531Z,33.71
2017-05-23T08:01:51.188Z,34.3
2017-05-23T08:02:36.617Z,34.64
2017-05-23T08:03:36.343Z,34.84
2017-05-23T08:04:36.691Z,35.14
2017-05-23T08:05:36.721Z,35.44
2017-05-23T08:06:36.463Z,35.48
2017-05-23T08:07:36.493Z,35.63
2017-05-23T08:08:36.837Z,35.38
2017-05-23T08:09:36.563Z,35.34
2017-05-23T08:10:36.911Z,35.44
2017-05-23T08:11:36.941Z,34.87
2017-05-23T08:12:36.983Z,34.89
2017-05-23T08:14:36.770Z,35.66
2017-05-23T08:15:36.792Z,35.26
2017-05-23T08:16:37.129Z,35.02
2017-05-23T08:17:51.791Z,34.78
2017-05-23T08:18:37.216Z,34.37
2017-05-23T08:19:37.265Z,34.27
2017-05-23T08:20:37.286Z,34.91
2017-05-23T08:21:37.322Z,35.18
2017-05-23T08:22:37.363Z,35.31
2017-05-23T08:23:37.401Z,34.91
2017-05-23T08:24:37.437Z,34.96
2017-05-23T08:25:37.166Z,34.91
2017-05-23T08:26:37.533Z,34.96
2017-05-23T08:27:37.570Z,34.17
2017-05-23T08:28:37.603Z,33.66
2017-05-23T08:29:37.641Z,33.98
2017-05-23T08:30:37.664Z,34.16
2017-05-23T08:31:37.713Z,34.4
2017-05-23T08:32:37.744Z,34.88
2017-05-23T08:33:52.403Z,35.33
2017-05-23T08:34:37.829Z,35.44
2017-05-23T08:35:37.556Z,35.04
2017-05-23T08:36:37.895Z,35.09
2017-05-23T08:37:37.631Z,35.23
2017-05-23T08:38:37.976Z,35.26
2017-05-23T08:39:38.021Z,34.87
2017-05-23T08:40:38.044Z,35.06
2017-05-23T08:41:38.091Z,35.14
2017-05-23T08:42:38.129Z,34.96
2017-05-23T08:43:38.167Z,35.1
2017-05-23T08:44:38.187Z,35.16
2017-05-23T08:45:38.225Z,34.96
2017-05-23T08:46:37.962Z,35.43
2017-05-23T08:47:37.997Z,35.4
2017-05-23T08:49:52.997Z,34.1
2017-05-23T08:50:38.415Z,34.3
2017-05-23T08:51:38.143Z,34.28
2017-05-23T08:53:38.532Z,34.61
2017-05-23T08:54:38.570Z,34.8
2017-05-23T08:55:38.665Z,35.1
2017-05-23T08:56:38.643Z,35.25
2017-05-23T08:57:38.368Z,35.29
2017-05-23T08:58:38.408Z,35.26
2017-05-23T08:59:38.474Z,35.84
2017-05-23T09:00:38.787Z,35.52
2017-05-23T09:01:38.831Z,35.33
2017-05-23T09:02:38.563Z,34.8
2017-05-23T09:03:38.587Z,34.69
2017-05-23T09:04:53.552Z,34.59
2017-05-23T09:05:38.980Z,34.82
2017-05-23T09:06:39.002Z,35.03
2017-05-23T09:07:38.738Z,34.82
2017-05-23T09:08:39.095Z,35.04
2017-05-23T09:09:39.117Z,35.06
2017-05-23T09:10:39.163Z,34.89
2017-05-23T09:11:39.198Z,34.46
2017-05-23T09:12:39.234Z,34.06
2017-05-23T09:14:39.311Z,34.34
2017-05-23T09:15:39.347Z,34.65
2017-05-23T09:16:39.433Z,34.82
2017-05-23T09:18:39.447Z,34.72
2017-05-23T09:19:39.500Z,34.84
2017-05-23T09:20:54.146Z,34.82
2017-05-23T09:21:39.254Z,34.77
2017-05-23T09:22:39.294Z,34.78
2017-05-23T09:25:39.393Z,35.04
2017-05-23T09:26:39.733Z,35.37
2017-05-23T09:27:54.393Z,34.96
2017-05-23T09:28:39.809Z,34.91
2017-05-23T09:29:39.838Z,34.43
2017-05-23T09:30:39.878Z,34.16
2017-05-23T09:31:39.911Z,34.52
2017-05-23T09:32:39.952Z,34.92
2017-05-23T09:33:39.696Z,34.97
2017-05-23T09:34:39.722Z,35.43
2017-05-23T09:35:40.055Z,35.06
2017-05-23T09:36:54.716Z,34.4
2017-05-23T09:37:39.830Z,34.37
2017-05-23T09:38:40.170Z,33.87
2017-05-23T09:39:40.202Z,34.13
2017-05-23T09:40:40.242Z,34.34
2017-05-23T09:42:40.314Z,34.88
2017-05-23T09:43:40.104Z,35.16
2017-05-23T09:44:40.083Z,35.29
2017-05-23T09:45:55.040Z,34.99
2017-05-23T09:46:40.456Z,35
2017-05-23T09:47:40.191Z,34.65
2017-05-23T09:48:40.529Z,33.94
2017-05-23T09:49:40.565Z,33.01
2017-05-23T09:50:40.599Z,32.32
2017-05-23T09:51:40.639Z,32.5
2017-05-23T09:52:55.290Z,32.88
2017-05-23T09:53:40.711Z,33.31
2017-05-23T09:54:40.743Z,33.56
2017-05-23T09:55:40.785Z,33.54
2017-05-23T09:56:40.815Z,33.68
2017-05-23T09:57:40.859Z,33.78
2017-05-23T09:59:40.923Z,34.15
2017-05-23T10:00:40.955Z,34.65
2017-05-23T10:01:40.990Z,34.94
2017-05-23T10:02:55.646Z,34.7
2017-05-23T10:03:41.065Z,34.65
2017-05-23T10:04:41.099Z,35.36
2017-05-23T10:05:41.193Z,35.1
2017-05-23T10:06:40.864Z,35.18
2017-05-23T10:07:40.904Z,35.09
2017-05-23T10:08:55.858Z,35.21
2017-05-23T10:09:40.972Z,35.07
2017-05-23T10:10:41.007Z,35.04
2017-05-23T10:11:41.043Z,34.87
2017-05-23T10:13:41.418Z,34.73
2017-05-23T10:14:56.076Z,35.03
2017-05-23T10:15:41.488Z,35.28
2017-05-23T10:16:56.143Z,34.94
2017-05-23T10:17:41.564Z,34.8
2017-05-23T10:18:41.593Z,34.47
2017-05-23T10:19:41.328Z,34.35
2017-05-23T10:20:41.665Z,34.21
2017-05-23T10:21:41.707Z,33.97
2017-05-23T10:22:41.736Z,34.1
2017-05-23T10:23:41.769Z,33.66
2017-05-23T10:24:56.122Z,33.65
2017-05-23T10:25:41.537Z,32.99
2017-05-23T10:26:41.876Z,32.75
2017-05-23T10:27:41.913Z,32.89
2017-05-23T10:29:41.980Z,33.28
2017-05-23T10:30:41.713Z,33.34
2017-05-23T10:31:42.053Z,32.84
2017-05-23T10:32:41.784Z,32.82
2017-05-23T10:33:42.121Z,32.84
2017-05-23T10:34:42.161Z,32.5
2017-05-23T10:35:42.191Z,32.62
2017-05-23T10:36:42.224Z,32.44
2017-05-23T10:37:42.264Z,32.07
2017-05-23T10:38:42.306Z,31.44
2017-05-23T10:39:56.999Z,31.39
2017-05-23T10:40:42.066Z,31.47
2017-05-23T10:41:42.401Z,31.5
2017-05-23T10:42:42.136Z,31.57
2017-05-23T10:43:42.467Z,31.32
2017-05-23T10:44:42.508Z,31.47
2017-05-23T10:45:42.543Z,31.35
2017-05-23T10:46:42.573Z,31.47
2017-05-23T10:47:42.608Z,31.53
2017-05-23T10:48:42.644Z,31.57
2017-05-23T10:49:56.992Z,31.7
2017-05-23T10:50:42.414Z,31.5
2017-05-23T10:51:57.364Z,31.5
2017-05-23T10:52:42.780Z,31.47
2017-05-23T10:53:42.819Z,31.44
2017-05-23T10:54:42.847Z,31.5
2017-05-23T10:56:42.921Z,31.57
2017-05-23T10:57:42.952Z,31.31
2017-05-23T10:58:42.989Z,31.48
2017-05-23T10:59:42.711Z,31.46
2017-05-23T11:00:57.678Z,31.53
2017-05-23T11:03:42.852Z,30.77
2017-05-23T11:04:57.504Z,30.79
2017-05-23T11:05:43.224Z,30.75
2017-05-23T11:06:43.258Z,30.38
2017-05-23T11:07:43.291Z,30.46
2017-05-23T11:08:43.324Z,30.84
2017-05-23T11:09:43.050Z,30.69
2017-05-23T11:10:43.388Z,30.95
2017-05-23T11:11:58.043Z,31.47
2017-05-23T11:12:43.157Z,31.43
2017-05-23T11:13:43.496Z,31.47
2017-05-23T11:14:42.913Z,31.17
2017-05-23T11:17:43.016Z,31.04
2017-05-23T11:18:57.980Z,30.89
2017-05-23T11:19:58.313Z,31.06
2017-05-23T11:20:43.423Z,31.16
2017-05-23T11:21:58.377Z,31.17
2017-05-23T11:22:43.789Z,31.07
2017-05-23T11:23:43.825Z,31.29
2017-05-23T11:24:43.559Z,31.62
2017-05-23T11:25:43.892Z,31.53
2017-05-23T11:26:43.925Z,31.41
2017-05-23T11:27:58.580Z,30.31
2017-05-23T11:28:43.998Z,30.38
2017-05-23T11:29:44.028Z,30.62
2017-05-23T11:30:44.058Z,30.76
2017-05-23T11:31:43.786Z,30.95
2017-05-23T11:33:43.857Z,31.28
2017-05-23T11:34:43.890Z,31.19
2017-05-23T11:35:44.229Z,31.04
2017-05-23T11:36:44.256Z,30.95
2017-05-23T11:37:58.605Z,31.25
2017-05-23T11:38:58.638Z,31.26
2017-05-23T11:39:44.054Z,31.25
2017-05-23T11:41:44.425Z,30.64
2017-05-23T11:42:44.151Z,30.31
2017-05-23T11:43:59.110Z,29.51
2017-05-23T11:44:43.914Z,29
2017-05-23T11:45:44.254Z,28.67
2017-05-23T11:46:44.588Z,28.56
2017-05-23T11:47:44.624Z,28.78
2017-05-23T11:49:44.689Z,28.52
2017-05-23T11:50:44.722Z,28.74
2017-05-23T11:51:44.761Z,29.05
2017-05-23T11:52:44.789Z,29.33
2017-05-23T11:53:44.818Z,29.76
2017-05-23T11:54:44.859Z,29.86
2017-05-23T11:55:45.185Z,30.11
2017-05-23T11:57:44.645Z,29.21
2017-05-23T11:58:44.676Z,29.11
2017-05-23T11:59:59.629Z,29.33
2017-05-23T12:00:45.045Z,29.31
2017-05-23T12:01:45.076Z,28.77
2017-05-23T12:05:45.206Z,29.53
2017-05-23T12:06:45.233Z,29.51
2017-05-23T12:07:45.270Z,29.39
2017-05-23T12:08:44.999Z,29.45
2017-05-23T12:09:45.034Z,29.58
2017-05-23T12:10:45.057Z,29.48
2017-05-23T12:11:45.403Z,29.57
2017-05-23T12:12:45.128Z,29.63
2017-05-23T12:13:45.466Z,29.86
2017-05-23T12:15:00.113Z,29.55
2017-05-23T12:15:45.529Z,29.61
2017-05-23T12:16:45.570Z,29.68
2017-05-23T12:18:45.321Z,29.63
2017-05-23T12:19:45.658Z,29.57
2017-05-23T12:20:45.693Z,28.93
2017-05-23T12:22:45.758Z,28.07
2017-05-23T12:23:45.483Z,28.24
2017-05-23T12:25:00.437Z,28.49
2017-05-23T12:25:45.847Z,28.41
2017-05-23T12:26:45.579Z,28.36
2017-05-23T12:27:45.616Z,28.02
2017-05-23T12:28:45.944Z,28.03
2017-05-23T12:29:45.982Z,28.14
2017-05-23T12:30:46.014Z,28.02
2017-05-23T12:31:46.043Z,28.31
2017-05-23T12:32:46.083Z,28.58
2017-05-23T12:34:45.836Z,28.78
2017-05-23T12:36:46.197Z,29.21
2017-05-23T12:37:46.235Z,29.28
2017-05-23T12:38:45.964Z,29.14
2017-05-23T12:39:46.295Z,29.09
2017-05-23T12:40:46.326Z,29.02
2017-05-23T12:41:46.364Z,29.06
2017-05-23T12:42:46.391Z,29.16
2017-05-23T12:43:46.425Z,29.43
2017-05-23T12:44:46.458Z,29.57
2017-05-23T12:45:46.181Z,29.46
2017-05-23T12:47:01.132Z,29.57
2017-05-23T12:47:46.548Z,29.61
2017-05-23T12:48:46.581Z,29.58
2017-05-23T12:49:46.612Z,29.42
2017-05-23T12:50:46.344Z,29.28
2017-05-23T12:51:46.675Z,29.28
2017-05-23T12:52:46.708Z,29.33
2017-05-23T12:53:46.740Z,29.43
2017-05-23T12:54:46.771Z,29.34
2017-05-23T12:55:46.497Z,29.48
2017-05-23T12:56:46.832Z,29.28
2017-05-23T12:58:01.480Z,29.3
2017-05-23T12:58:46.897Z,29.45
2017-05-23T12:59:46.926Z,29.48
2017-05-23T13:00:46.655Z,29.46
2017-05-23T13:01:46.685Z,29.04
2017-05-23T13:03:01.702Z,28.77
2017-05-23T13:03:47.058Z,28.31
2017-05-23T13:04:47.094Z,28.24
2017-05-23T13:05:47.116Z,28.12
2017-05-23T13:06:46.847Z,28.37
2017-05-23T13:07:46.877Z,28.31
2017-05-23T13:09:46.940Z,28
2017-05-23T13:10:46.972Z,27.69
2017-05-23T13:11:46.699Z,27.7
2017-05-23T13:13:47.372Z,27.87
2017-05-23T13:14:47.405Z,28.17
2017-05-23T13:15:47.428Z,28.46
2017-05-23T13:16:47.465Z,28.58
2017-05-23T13:17:47.189Z,28.59
2017-05-23T13:19:02.143Z,28.55
2017-05-23T13:19:47.558Z,28.62
2017-05-23T13:20:47.585Z,28.7
2017-05-23T13:21:47.617Z,28.55
2017-05-23T13:22:47.402Z,28.83
2017-05-23T13:23:47.377Z,28.8
2017-05-23T13:24:47.107Z,29
2017-05-23T13:25:47.744Z,28.67
2017-05-23T13:27:02.394Z,28.76
2017-05-23T13:27:47.817Z,29
2017-05-23T13:28:47.843Z,29.39
2017-05-23T13:29:47.868Z,29.46
2017-05-23T13:30:47.896Z,29.46
2017-05-23T13:31:47.935Z,29.34
2017-05-23T13:32:48.266Z,29.27
2017-05-23T13:33:47.996Z,29.09
2017-05-23T13:35:02.338Z,28.88
2017-05-23T13:35:48.057Z,28.98
2017-05-23T13:36:48.086Z,29.14
2017-05-23T13:37:48.117Z,29.33
2017-05-23T13:38:48.155Z,29.46
2017-05-23T13:39:48.183Z,29.52
2017-05-23T13:40:48.213Z,29.19
2017-05-23T13:42:47.971Z,29.46
2017-05-23T13:43:48.000Z,29.51
2017-05-23T13:44:48.033Z,29.83
2017-05-23T13:45:48.403Z,29.87
2017-05-23T13:46:48.401Z,30.1
2017-05-23T13:47:48.435Z,30.16
2017-05-23T13:48:48.463Z,29.74
2017-05-23T13:50:03.109Z,29.58
2017-05-23T13:50:48.223Z,29.46
2017-05-23T13:51:48.558Z,28.86
2017-05-23T13:52:48.589Z,28.88
2017-05-23T13:53:48.317Z,28.9
2017-05-23T13:54:48.655Z,28.92
2017-05-23T13:55:48.682Z,29.12
2017-05-23T13:56:48.412Z,29.11